Carlos City, Indiana
Current Conditions -  °F | °C
As of 2:55 PM on Tuesday 21 Oct 2014 (Local Time) from KVES Reporting Station
Overcast Overcast  
Wind Chill: 50°   Ceiling: 1900
Heat Index: 50°   Visibility: 10mi
Dew Point: 45°   Wind: 10mph
Humidity: 82%   Direction: 340°NNW
Pressure: 30.05"   Gusts: 16mph
Location:  40.0606°N, 84.9258°W
Report Text: KVES 211855Z AUTO 34009G14KT 10SM BKN019 OVC027 10/07 A3005 RMK AO2
Loading
Personal Weather Stations






























Interactive Weather Map
Tropical Storm Tracking
New forecast layout! Learn more

10-Day Weather Forecast

Advertisements
Track Severe Weather on mobile